createdAt,value
2019-06-10T00:01:23.602Z,17.40
2019-06-10T00:04:24.955Z,17.40
2019-06-10T00:07:26.355Z,17.40
2019-06-10T00:10:27.714Z,17.40
2019-06-10T00:13:31.253Z,17.40
2019-06-10T00:16:32.201Z,17.30
2019-06-10T00:19:33.553Z,17.30
2019-06-10T00:22:34.919Z,17.30
2019-06-10T00:25:36.402Z,17.20
2019-06-10T00:28:37.775Z,17.20
2019-06-10T00:31:41.577Z,17.20
2019-06-10T00:34:42.189Z,17.20
2019-06-10T00:37:43.571Z,17.20
2019-06-10T00:40:45.015Z,17.30
2019-06-10T00:43:46.393Z,17.30
2019-06-10T00:46:47.766Z,17.30
2019-06-10T00:49:51.297Z,17.30
2019-06-10T00:52:52.302Z,17.20
2019-06-10T00:55:53.690Z,17.20
2019-06-10T00:58:55.036Z,17.20
2019-06-10T01:01:56.417Z,17.20
2019-06-10T01:04:57.837Z,17.20
2019-06-10T01:08:01.375Z,17.20
2019-06-10T01:11:05.595Z,17.20
2019-06-10T01:14:05.562Z,17.20
2019-06-10T01:17:07.540Z,17.10
2019-06-10T01:20:14.408Z,17.10
2019-06-10T01:23:15.697Z,17.00
2019-06-10T01:26:18.325Z,17.00
2019-06-10T01:29:21.059Z,16.90
2019-06-10T01:32:22.641Z,16.90
2019-06-10T01:35:23.986Z,16.90
2019-06-10T01:38:25.359Z,16.80
2019-06-10T01:41:26.759Z,16.90
2019-06-10T01:44:30.818Z,16.90
2019-06-10T01:47:31.245Z,16.90
2019-06-10T01:50:32.601Z,16.90
2019-06-10T01:53:34.001Z,16.90
2019-06-10T01:56:35.375Z,16.90
2019-06-10T01:59:36.800Z,16.80
2019-06-10T02:02:38.195Z,16.80
2019-06-10T02:05:41.961Z,16.80
2019-06-10T02:08:42.621Z,16.80
2019-06-10T02:11:44.050Z,16.70
2019-06-10T02:14:45.462Z,16.70
2019-06-10T02:17:46.841Z,16.60
2019-06-10T02:20:48.239Z,16.60
2019-06-10T02:23:51.867Z,16.70
2019-06-10T02:26:52.889Z,16.70
2019-06-10T02:29:54.290Z,16.70
2019-06-10T02:32:55.691Z,16.70
2019-06-10T02:35:57.064Z,16.70
2019-06-10T02:38:58.435Z,16.80
2019-06-10T02:42:04.962Z,16.80
2019-06-10T02:45:08.007Z,16.80
2019-06-10T02:48:09.433Z,16.80
2019-06-10T02:51:14.718Z,16.80
2019-06-10T02:54:16.411Z,16.90
2019-06-10T02:57:18.763Z,16.90
2019-06-10T03:00:33.164Z,16.90
2019-06-10T03:03:35.254Z,16.90
2019-06-10T03:06:33.349Z,16.90
2019-06-10T03:09:32.851Z,17.00
2019-06-10T03:12:34.108Z,16.90
2019-06-10T03:15:37.607Z,16.90
2019-06-10T03:18:38.969Z,16.90
2019-06-10T03:21:42.716Z,16.90
2019-06-10T03:24:43.438Z,16.90
2019-06-10T03:27:44.837Z,16.90
2019-06-10T03:30:53.415Z,16.80
2019-06-10T03:33:49.309Z,16.80
2019-06-10T03:36:50.649Z,16.80
2019-06-10T03:39:53.108Z,16.80
2019-06-10T03:42:54.543Z,16.80
2019-06-10T03:45:55.895Z,16.80
2019-06-10T03:48:57.375Z,16.70
2019-06-10T03:51:58.724Z,16.70
2019-06-10T03:55:00.089Z,16.70
2019-06-10T03:58:02.228Z,16.70
2019-06-10T04:01:03.733Z,16.70
2019-06-10T04:04:06.172Z,16.70
2019-06-10T04:07:07.507Z,16.70
2019-06-10T04:10:09.672Z,16.80
2019-06-10T04:13:13.226Z,16.80
2019-06-10T04:16:14.260Z,16.80
2019-06-10T04:19:15.648Z,16.70
2019-06-10T04:22:17.614Z,16.70
2019-06-10T04:25:19.843Z,16.70
2019-06-10T04:28:24.128Z,16.70
2019-06-10T04:31:25.432Z,16.80
2019-06-10T04:34:30.109Z,16.80
2019-06-10T04:37:32.544Z,16.80
2019-06-10T04:40:33.576Z,16.90
2019-06-10T04:43:34.940Z,16.90
2019-06-10T04:46:36.281Z,16.90
2019-06-10T04:49:37.652Z,16.90
2019-06-10T04:52:38.975Z,16.90
2019-06-10T04:55:40.335Z,17.00
2019-06-10T04:58:43.252Z,17.00
2019-06-10T05:01:44.937Z,17.00
2019-06-10T05:04:46.326Z,17.00
2019-06-10T05:07:47.653Z,17.00
2019-06-10T05:10:49.036Z,17.00
2019-06-10T05:13:50.412Z,17.00
2019-06-10T05:16:54.313Z,17.00
2019-06-10T05:19:55.873Z,17.00
2019-06-10T05:22:57.276Z,17.00
2019-06-10T05:25:58.658Z,17.00
2019-06-10T05:29:00.040Z,16.90
2019-06-10T05:32:02.511Z,16.90
2019-06-10T05:35:04.461Z,16.90
2019-06-10T05:38:06.034Z,16.80
2019-06-10T05:41:07.414Z,16.90
2019-06-10T05:44:08.762Z,16.80
2019-06-10T05:47:12.524Z,16.80
2019-06-10T05:50:13.471Z,16.80
2019-06-10T05:53:14.824Z,16.80
2019-06-10T05:56:16.185Z,16.70
2019-06-10T05:59:17.565Z,16.70
2019-06-10T06:02:18.972Z,16.80
2019-06-10T06:05:22.190Z,16.80
2019-06-10T06:08:23.378Z,16.80
2019-06-10T06:11:25.249Z,16.80
2019-06-10T06:14:27.526Z,16.80
2019-06-10T06:17:29.873Z,16.90
2019-06-10T06:20:33.762Z,16.90
2019-06-10T06:23:36.739Z,17.00
2019-06-10T06:26:38.387Z,17.00
2019-06-10T06:29:42.969Z,17.00
2019-06-10T06:32:43.789Z,17.10
2019-06-10T06:35:46.585Z,17.10
2019-06-10T06:38:48.166Z,17.10
2019-06-10T06:41:49.532Z,17.10
2019-06-10T06:44:52.540Z,17.10
2019-06-10T06:47:54.094Z,17.10
2019-06-10T06:51:04.470Z,17.20
2019-06-10T06:53:58.491Z,17.20
2019-06-10T06:57:02.632Z,17.20
2019-06-10T07:00:33.809Z,17.30
2019-06-10T07:03:06.542Z,17.30
2019-06-10T07:06:08.381Z,17.30
2019-06-10T07:09:09.766Z,17.40
2019-06-10T07:12:13.028Z,17.40
2019-06-10T07:15:15.508Z,17.60
2019-06-10T07:18:16.886Z,17.60
2019-06-10T07:21:18.266Z,17.70
2019-06-10T07:24:19.728Z,17.70
2019-06-10T07:27:22.613Z,17.80
2019-06-10T07:30:24.177Z,17.80
2019-06-10T07:33:25.560Z,17.80
2019-06-10T07:36:26.932Z,17.80
2019-06-10T07:39:29.394Z,17.90
2019-06-10T07:42:32.868Z,17.90
2019-06-10T07:45:36.150Z,17.90
2019-06-10T07:48:38.270Z,17.90
2019-06-10T07:51:41.073Z,17.90
2019-06-10T07:54:45.271Z,18.00
2019-06-10T07:57:46.769Z,18.00
2019-06-10T08:00:48.692Z,18.10
2019-06-10T08:03:52.407Z,18.10
2019-06-10T08:06:53.240Z,18.10
2019-06-10T08:09:54.616Z,18.10
2019-06-10T08:12:55.970Z,18.20
2019-06-10T08:15:57.316Z,18.10
2019-06-10T08:19:22.299Z,18.10
2019-06-10T08:22:02.943Z,18.20
2019-06-10T08:25:05.084Z,18.20
2019-06-10T08:28:06.511Z,18.20
2019-06-10T08:31:07.879Z,18.20
2019-06-10T08:34:09.283Z,18.20
2019-06-10T08:37:13.513Z,18.30
2019-06-10T08:40:13.757Z,18.40
2019-06-10T08:43:15.171Z,18.60
2019-06-10T08:46:16.603Z,18.90
2019-06-10T08:49:18.032Z,19.30
2019-06-10T08:52:19.400Z,19.50
2019-06-10T08:55:22.817Z,19.60
2019-06-10T08:58:23.898Z,19.70
2019-06-10T09:01:25.260Z,19.90
2019-06-10T09:04:29.427Z,20.10
2019-06-10T09:07:32.160Z,20.40
2019-06-10T09:10:33.916Z,20.50
2019-06-10T09:13:36.526Z,20.40
2019-06-10T09:16:39.564Z,20.40
2019-06-10T09:19:43.675Z,20.40
2019-06-10T09:22:48.205Z,20.20
2019-06-10T09:25:49.414Z,20.10
2019-06-10T09:28:53.781Z,19.90
2019-06-10T09:31:55.930Z,19.80
2019-06-10T09:34:57.788Z,19.70
2019-06-10T09:37:59.654Z,19.60
2019-06-10T09:41:05.178Z,19.60
2019-06-10T09:44:04.280Z,19.50
2019-06-10T09:47:06.225Z,19.50
2019-06-10T09:50:12.266Z,19.50
2019-06-10T09:53:28.982Z,19.60
2019-06-10T09:56:17.884Z,19.80
2019-06-10T09:59:19.794Z,20.20
2019-06-10T10:02:22.436Z,20.50
2019-06-10T10:05:23.886Z,20.60
2019-06-10T10:08:25.287Z,20.90
2019-06-10T10:11:28.595Z,21.10
2019-06-10T10:14:29.847Z,21.30
2019-06-10T10:17:33.388Z,21.40
2019-06-10T10:20:34.301Z,21.80
2019-06-10T10:23:50.381Z,22.10
2019-06-10T10:26:38.778Z,22.20
2019-06-10T10:29:42.592Z,21.80
2019-06-10T10:32:47.128Z,21.40
2019-06-10T10:35:47.620Z,21.10
2019-06-10T10:38:50.760Z,20.80
2019-06-10T10:41:56.564Z,20.60
2019-06-10T10:44:58.823Z,20.50
2019-06-10T10:47:58.305Z,20.30
2019-06-10T10:50:59.836Z,20.30
2019-06-10T10:54:21.204Z,20.50
2019-06-10T10:57:04.401Z,20.80
2019-06-10T11:00:07.424Z,21.20
2019-06-10T11:03:08.862Z,21.40
2019-06-10T11:06:12.860Z,21.40
2019-06-10T11:09:13.290Z,21.50
2019-06-10T11:12:14.941Z,21.50
2019-06-10T11:15:23.141Z,21.40
2019-06-10T11:18:25.729Z,21.40
2019-06-10T11:21:27.112Z,21.50
2019-06-10T11:24:36.393Z,21.70
2019-06-10T11:27:33.144Z,21.80
2019-06-10T11:30:34.648Z,22.10
2019-06-10T11:33:36.004Z,22.30
2019-06-10T11:36:37.405Z,22.40
2019-06-10T11:39:38.882Z,22.50
2019-06-10T11:42:42.792Z,22.60
2019-06-10T11:45:48.270Z,22.60
2019-06-10T11:48:47.024Z,22.40
2019-06-10T11:51:49.294Z,22.20
2019-06-10T11:55:03.335Z,22.00
2019-06-10T11:57:56.489Z,21.80
2019-06-10T12:01:00.239Z,21.50
2019-06-10T12:04:04.027Z,21.30
2019-06-10T12:07:04.036Z,21.00
2019-06-10T12:10:07.525Z,20.90
2019-06-10T12:13:08.877Z,20.70
2019-06-10T12:19:13.376Z,20.50
2019-06-10T12:22:14.709Z,20.40
2019-06-10T12:25:31.331Z,20.40
2019-06-10T12:28:19.661Z,20.30
2019-06-10T12:31:23.183Z,20.30
2019-06-10T12:34:24.106Z,20.10
2019-06-10T12:37:25.466Z,20.00
2019-06-10T12:40:27.754Z,19.90
2019-06-10T12:43:29.094Z,19.80
2019-06-10T12:46:32.679Z,19.80
2019-06-10T12:49:33.502Z,19.70
2019-06-10T12:52:34.874Z,19.70
2019-06-10T12:55:43.223Z,19.80
2019-06-10T12:58:39.321Z,19.80
2019-06-10T13:01:43.796Z,19.80
2019-06-10T13:04:44.630Z,19.90
2019-06-10T13:07:47.519Z,20.00
2019-06-10T13:10:48.992Z,19.90
2019-06-10T13:13:50.354Z,19.90
2019-06-10T13:16:53.391Z,19.80
2019-06-10T13:19:55.001Z,19.80
2019-06-10T13:22:56.396Z,19.80
2019-06-10T13:26:01.292Z,19.80
2019-06-10T13:29:03.633Z,19.90
2019-06-10T13:32:06.141Z,19.90
2019-06-10T13:35:07.725Z,19.90
2019-06-10T13:38:09.320Z,19.90
2019-06-10T13:41:10.732Z,19.90
2019-06-10T13:44:16.484Z,19.90
2019-06-10T13:47:15.337Z,19.90
2019-06-10T13:50:19.337Z,19.90
2019-06-10T13:53:20.093Z,19.90
2019-06-10T13:56:39.870Z,19.90
2019-06-10T13:59:25.012Z,19.90
2019-06-10T14:02:26.432Z,19.90
2019-06-10T14:05:27.947Z,19.80
2019-06-10T14:08:29.354Z,19.70
2019-06-10T14:11:33.059Z,19.70
2019-06-10T14:14:33.863Z,19.60
2019-06-10T14:17:35.301Z,19.60
2019-06-10T14:20:36.820Z,19.50
2019-06-10T14:23:38.202Z,19.50
2019-06-10T14:26:44.745Z,19.40
2019-06-10T14:29:42.861Z,19.40
2019-06-10T14:32:44.248Z,19.40
2019-06-10T14:35:45.626Z,19.40
2019-06-10T14:38:47.023Z,19.30
2019-06-10T14:41:48.414Z,19.30
2019-06-10T14:44:49.790Z,19.30
2019-06-10T14:47:54.233Z,19.40
2019-06-10T14:50:54.220Z,19.30
2019-06-10T14:53:55.586Z,19.30
2019-06-10T14:56:57.522Z,19.20
2019-06-10T14:59:58.920Z,19.20
2019-06-10T15:03:02.442Z,19.10
2019-06-10T15:06:03.483Z,19.00
2019-06-10T15:09:09.375Z,19.00
2019-06-10T15:12:11.656Z,18.90
2019-06-10T15:15:14.377Z,18.80
2019-06-10T15:18:18.153Z,18.70
2019-06-10T15:21:19.426Z,18.70
2019-06-10T15:24:23.714Z,18.70
2019-06-10T15:27:30.595Z,18.60
2019-06-10T15:30:31.359Z,18.60
2019-06-10T15:33:32.628Z,18.60
2019-06-10T15:36:34.344Z,18.60
2019-06-10T15:39:35.795Z,18.60
2019-06-10T15:42:37.242Z,18.70
2019-06-10T15:45:53.631Z,18.80
2019-06-10T15:48:56.731Z,18.80
2019-06-10T15:51:59.848Z,19.00
2019-06-10T15:55:04.165Z,19.10
2019-06-10T15:58:04.453Z,19.10
2019-06-10T16:01:05.814Z,19.10
2019-06-10T16:04:07.294Z,19.10
2019-06-10T16:07:08.728Z,19.20
2019-06-10T16:10:10.315Z,19.10
2019-06-10T16:13:12.501Z,19.00
2019-06-10T16:16:14.817Z,19.00
2019-06-10T16:19:18.316Z,19.00
2019-06-10T16:22:22.267Z,19.00
2019-06-10T16:25:26.520Z,19.00
2019-06-10T16:28:27.193Z,19.00
2019-06-10T16:31:28.595Z,19.00
2019-06-10T16:34:32.405Z,19.00
2019-06-10T16:37:32.998Z,18.90
2019-06-10T16:40:34.382Z,18.90
2019-06-10T16:43:35.816Z,18.90
2019-06-10T16:46:37.294Z,18.90
2019-06-10T16:49:38.677Z,18.80
2019-06-10T16:52:42.948Z,18.80
2019-06-10T16:55:43.141Z,18.70
2019-06-10T16:58:44.551Z,18.70
2019-06-10T17:01:47.098Z,18.60
2019-06-10T17:04:48.531Z,18.60
2019-06-10T17:07:52.440Z,18.60
2019-06-10T17:10:53.165Z,18.60
2019-06-10T17:13:54.605Z,18.60
2019-06-10T17:16:56.005Z,18.60
2019-06-10T17:20:23.198Z,18.70
